sensor_id;sensor_type;location;lat;lon;timestamp;temperature;humidity
11221;DHT22;8517;53.546;10.104;2023-02-28T00:00:36;6.60;99.90
11221;DHT22;8517;53.546;10.104;2023-02-28T00:03:04;6.50;99.90
11221;DHT22;8517;53.546;10.104;2023-02-28T00:05:31;6.50;99.90
11221;DHT22;8517;53.546;10.104;2023-02-28T00:07:58;6.50;99.90
11221;DHT22;8517;53.546;10.104;2023-02-28T00:10:28;6.50;99.90
11221;DHT22;8517;53.546;10.104;2023-02-28T00:12:59;6.50;99.90
11221;DHT22;8517;53.546;10.104;2023-02-28T00:15:28;6.50;99.90
11221;DHT22;8517;53.546;10.104;2023-02-28T00:17:54;6.40;99.90
11221;DHT22;8517;53.546;10.104;2023-02-28T00:20:21;6.40;99.90
11221;DHT22;8517;53.546;10.104;2023-02-28T00:22:50;6.40;99.90
11221;DHT22;8517;53.546;10.104;2023-02-28T00:25:18;6.40;99.90
11221;DHT22;8517;53.546;10.104;2023-02-28T00:27:46;6.40;99.90
11221;DHT22;8517;53.546;10.104;2023-02-28T00:30:15;6.40;99.90
11221;DHT22;8517;53.546;10.104;2023-02-28T00:32:43;6.40;99.90
11221;DHT22;8517;53.546;10.104;2023-02-28T00:35:11;6.40;99.90
11221;DHT22;8517;53.546;10.104;2023-02-28T00:37:38;6.40;99.90
11221;DHT22;8517;53.546;10.104;2023-02-28T00:40:06;6.30;99.90
11221;DHT22;8517;53.546;10.104;2023-02-28T00:42:33;6.40;99.90
11221;DHT22;8517;53.546;10.104;2023-02-28T00:45:00;6.30;99.90
11221;DHT22;8517;53.546;10.104;2023-02-28T00:47:29;6.30;99.90
11221;DHT22;8517;53.546;10.104;2023-02-28T00:49:57;6.30;99.90
11221;DHT22;8517;53.546;10.104;2023-02-28T00:52:24;6.30;99.90
11221;DHT22;8517;53.546;10.104;2023-02-28T00:54:50;6.30;99.90
11221;DHT22;8517;53.546;10.104;2023-02-28T00:57:17;6.30;99.90
11221;DHT22;8517;53.546;10.104;2023-02-28T00:59:44;6.30;99.90
11221;DHT22;8517;53.546;10.104;2023-02-28T01:02:11;6.20;99.90
11221;DHT22;8517;53.546;10.104;2023-02-28T01:04:38;6.20;99.90
11221;DHT22;8517;53.546;10.104;2023-02-28T01:07:06;6.10;99.90
11221;DHT22;8517;53.546;10.104;2023-02-28T01:09:33;6.10;99.90
11221;DHT22;8517;53.546;10.104;2023-02-28T01:12:00;6.00;99.90
11221;DHT22;8517;53.546;10.104;2023-02-28T01:14:27;6.00;99.90
11221;DHT22;8517;53.546;10.104;2023-02-28T01:16:53;6.00;99.90
11221;DHT22;8517;53.546;10.104;2023-02-28T01:19:20;5.90;99.90
11221;DHT22;8517;53.546;10.104;2023-02-28T01:21:47;5.90;99.90
11221;DHT22;8517;53.546;10.104;2023-02-28T01:24:15;5.90;99.90
11221;DHT22;8517;53.546;10.104;2023-02-28T01:26:42;5.90;99.90
11221;DHT22;8517;53.546;10.104;2023-02-28T01:29:09;5.90;99.90
11221;DHT22;8517;53.546;10.104;2023-02-28T01:31:36;5.90;99.90
11221;DHT22;8517;53.546;10.104;2023-02-28T01:34:03;5.90;99.90
11221;DHT22;8517;53.546;10.104;2023-02-28T01:36:30;5.90;99.90
11221;DHT22;8517;53.546;10.104;2023-02-28T01:38:57;5.90;99.90
11221;DHT22;8517;53.546;10.104;2023-02-28T01:41:27;5.90;99.90
11221;DHT22;8517;53.546;10.104;2023-02-28T01:44:00;5.90;99.90
11221;DHT22;8517;53.546;10.104;2023-02-28T01:46:30;5.90;99.90
11221;DHT22;8517;53.546;10.104;2023-02-28T01:49:01;5.90;99.90
11221;DHT22;8517;53.546;10.104;2023-02-28T01:51:33;5.90;99.90
11221;DHT22;8517;53.546;10.104;2023-02-28T01:54:03;5.90;99.90
11221;DHT22;8517;53.546;10.104;2023-02-28T01:56:36;5.90;99.90
11221;DHT22;8517;53.546;10.104;2023-02-28T01:59:03;5.90;99.90
11221;DHT22;8517;53.546;10.104;2023-02-28T02:01:30;5.80;99.90
11221;DHT22;8517;53.546;10.104;2023-02-28T02:03:59;5.80;99.90
11221;DHT22;8517;53.546;10.104;2023-02-28T02:06:30;5.70;99.90
11221;DHT22;8517;53.546;10.104;2023-02-28T02:08:57;5.60;99.90
11221;DHT22;8517;53.546;10.104;2023-02-28T02:11:24;5.60;99.90
11221;DHT22;8517;53.546;10.104;2023-02-28T02:14:13;5.60;99.90
11221;DHT22;8517;53.546;10.104;2023-02-28T02:16:52;5.50;99.90
11221;DHT22;8517;53.546;10.104;2023-02-28T02:20:01;5.40;99.90
11221;DHT22;8517;53.546;10.104;2023-02-28T02:25:42;5.30;99.90
11221;DHT22;8517;53.546;10.104;2023-02-28T02:28:32;5.20;99.90
11221;DHT22;8517;53.546;10.104;2023-02-28T02:31:34;5.10;99.90
11221;DHT22;8517;53.546;10.104;2023-02-28T02:34:29;5.00;99.90
11221;DHT22;8517;53.546;10.104;2023-02-28T02:37:11;5.00;99.90
11221;DHT22;8517;53.546;10.104;2023-02-28T02:39:48;4.90;99.90
11221;DHT22;8517;53.546;10.104;2023-02-28T02:42:21;4.80;99.90
11221;DHT22;8517;53.546;10.104;2023-02-28T02:44:53;4.80;99.90
11221;DHT22;8517;53.546;10.104;2023-02-28T02:47:24;4.70;99.90
11221;DHT22;8517;53.546;10.104;2023-02-28T02:49:55;4.60;99.90
11221;DHT22;8517;53.546;10.104;2023-02-28T02:52:29;4.60;99.90
11221;DHT22;8517;53.546;10.104;2023-02-28T02:54:59;4.60;99.90
11221;DHT22;8517;53.546;10.104;2023-02-28T02:57:31;4.50;99.90
11221;DHT22;8517;53.546;10.104;2023-02-28T03:00:02;4.40;99.90
11221;DHT22;8517;53.546;10.104;2023-02-28T03:02:31;4.40;99.90
11221;DHT22;8517;53.546;10.104;2023-02-28T03:05:04;4.40;99.90
11221;DHT22;8517;53.546;10.104;2023-02-28T03:07:33;4.40;99.90
11221;DHT22;8517;53.546;10.104;2023-02-28T03:09:59;4.40;99.90
11221;DHT22;8517;53.546;10.104;2023-02-28T03:12:33;4.30;99.90
11221;DHT22;8517;53.546;10.104;2023-02-28T03:15:10;4.30;99.90
11221;DHT22;8517;53.546;10.104;2023-02-28T03:17:51;4.30;99.90
11221;DHT22;8517;53.546;10.104;2023-02-28T03:20:32;4.20;99.90
11221;DHT22;8517;53.546;10.104;2023-02-28T03:23:07;4.20;99.90
11221;DHT22;8517;53.546;10.104;2023-02-28T03:25:46;4.20;99.90
11221;DHT22;8517;53.546;10.104;2023-02-28T03:28:19;4.10;99.90
11221;DHT22;8517;53.546;10.104;2023-02-28T03:30:51;4.10;99.90
11221;DHT22;8517;53.546;10.104;2023-02-28T03:33:22;4.10;99.90
11221;DHT22;8517;53.546;10.104;2023-02-28T03:35:54;4.00;99.90
11221;DHT22;8517;53.546;10.104;2023-02-28T03:38:26;4.00;99.90
11221;DHT22;8517;53.546;10.104;2023-02-28T03:40:58;4.00;99.90
11221;DHT22;8517;53.546;10.104;2023-02-28T03:43:29;4.00;99.90
11221;DHT22;8517;53.546;10.104;2023-02-28T03:45:59;3.90;99.90
11221;DHT22;8517;53.546;10.104;2023-02-28T03:48:33;3.90;99.90
11221;DHT22;8517;53.546;10.104;2023-02-28T03:51:03;3.80;99.90
11221;DHT22;8517;53.546;10.104;2023-02-28T03:53:35;3.80;99.90
11221;DHT22;8517;53.546;10.104;2023-02-28T03:56:06;3.80;99.90
11221;DHT22;8517;53.546;10.104;2023-02-28T03:58:38;3.70;99.90
11221;DHT22;8517;53.546;10.104;2023-02-28T04:01:11;3.70;99.90
11221;DHT22;8517;53.546;10.104;2023-02-28T04:03:39;3.60;99.90
11221;DHT22;8517;53.546;10.104;2023-02-28T04:06:13;3.60;99.90
11221;DHT22;8517;53.546;10.104;2023-02-28T04:08:41;3.60;99.90
11221;DHT22;8517;53.546;10.104;2023-02-28T04:11:22;3.50;99.90
11221;DHT22;8517;53.546;10.104;2023-02-28T04:13:49;3.50;99.90
11221;DHT22;8517;53.546;10.104;2023-02-28T04:16:16;3.50;99.90
11221;DHT22;8517;53.546;10.104;2023-02-28T04:18:43;3.40;99.90
11221;DHT22;8517;53.546;10.104;2023-02-28T04:21:11;3.40;99.90
11221;DHT22;8517;53.546;10.104;2023-02-28T04:23:38;3.40;99.90
11221;DHT22;8517;53.546;10.104;2023-02-28T04:26:05;3.40;99.90
11221;DHT22;8517;53.546;10.104;2023-02-28T04:28:32;3.30;99.90
11221;DHT22;8517;53.546;10.104;2023-02-28T04:31:00;3.30;99.90
11221;DHT22;8517;53.546;10.104;2023-02-28T04:33:28;3.30;99.90
11221;DHT22;8517;53.546;10.104;2023-02-28T04:35:59;3.20;99.90
11221;DHT22;8517;53.546;10.104;2023-02-28T04:38:27;3.20;99.90
11221;DHT22;8517;53.546;10.104;2023-02-28T04:40:57;3.20;99.90
11221;DHT22;8517;53.546;10.104;2023-02-28T04:43:23;3.20;99.90
11221;DHT22;8517;53.546;10.104;2023-02-28T04:45:50;3.20;99.90
11221;DHT22;8517;53.546;10.104;2023-02-28T04:48:17;3.20;99.90
11221;DHT22;8517;53.546;10.104;2023-02-28T04:50:44;3.10;99.90
11221;DHT22;8517;53.546;10.104;2023-02-28T04:53:11;3.10;99.90
11221;DHT22;8517;53.546;10.104;2023-02-28T04:55:39;3.10;99.90
11221;DHT22;8517;53.546;10.104;2023-02-28T04:58:06;3.10;99.90
11221;DHT22;8517;53.546;10.104;2023-02-28T05:00:33;3.00;99.90
11221;DHT22;8517;53.546;10.104;2023-02-28T05:02:59;3.00;99.90
11221;DHT22;8517;53.546;10.104;2023-02-28T05:05:26;3.00;99.90
11221;DHT22;8517;53.546;10.104;2023-02-28T05:07:53;3.00;99.90
11221;DHT22;8517;53.546;10.104;2023-02-28T05:10:21;3.00;99.90
11221;DHT22;8517;53.546;10.104;2023-02-28T05:12:49;2.90;99.90
11221;DHT22;8517;53.546;10.104;2023-02-28T05:15:16;2.90;99.90
11221;DHT22;8517;53.546;10.104;2023-02-28T05:17:43;2.90;99.90
11221;DHT22;8517;53.546;10.104;2023-02-28T05:20:11;2.80;99.90
11221;DHT22;8517;53.546;10.104;2023-02-28T05:22:39;2.80;99.90
11221;DHT22;8517;53.546;10.104;2023-02-28T05:25:06;2.80;99.90
11221;DHT22;8517;53.546;10.104;2023-02-28T05:27:33;2.80;99.90
11221;DHT22;8517;53.546;10.104;2023-02-28T05:30:01;2.80;99.90
11221;DHT22;8517;53.546;10.104;2023-02-28T05:32:29;2.80;99.90
11221;DHT22;8517;53.546;10.104;2023-02-28T05:34:56;2.70;99.90
11221;DHT22;8517;53.546;10.104;2023-02-28T05:37:23;2.70;99.90
11221;DHT22;8517;53.546;10.104;2023-02-28T05:39:50;2.70;99.90
11221;DHT22;8517;53.546;10.104;2023-02-28T05:42:17;2.70;99.90
11221;DHT22;8517;53.546;10.104;2023-02-28T05:44:44;2.70;99.90
11221;DHT22;8517;53.546;10.104;2023-02-28T05:47:12;2.70;99.90
11221;DHT22;8517;53.546;10.104;2023-02-28T05:49:40;2.70;99.90
11221;DHT22;8517;53.546;10.104;2023-02-28T05:52:07;2.70;99.90
11221;DHT22;8517;53.546;10.104;2023-02-28T05:54:34;2.70;99.90
11221;DHT22;8517;53.546;10.104;2023-02-28T05:57:01;2.70;99.90
11221;DHT22;8517;53.546;10.104;2023-02-28T05:59:28;2.70;99.90
11221;DHT22;8517;53.546;10.104;2023-02-28T06:01:55;2.70;99.90
11221;DHT22;8517;53.546;10.104;2023-02-28T06:04:23;2.60;99.90
11221;DHT22;8517;53.546;10.104;2023-02-28T06:06:50;2.60;99.90
11221;DHT22;8517;53.546;10.104;2023-02-28T06:09:18;2.60;99.90
11221;DHT22;8517;53.546;10.104;2023-02-28T06:11:45;2.60;99.90
11221;DHT22;8517;53.546;10.104;2023-02-28T06:14:41;2.60;99.90
11221;DHT22;8517;53.546;10.104;2023-02-28T06:17:09;2.60;99.90
11221;DHT22;8517;53.546;10.104;2023-02-28T06:19:38;2.60;99.90
11221;DHT22;8517;53.546;10.104;2023-02-28T06:22:06;2.50;99.90
11221;DHT22;8517;53.546;10.104;2023-02-28T06:24:33;2.50;99.90
11221;DHT22;8517;53.546;10.104;2023-02-28T06:27:00;2.50;99.90
11221;DHT22;8517;53.546;10.104;2023-02-28T06:29:31;2.50;99.90
11221;DHT22;8517;53.546;10.104;2023-02-28T06:31:59;2.50;99.90
11221;DHT22;8517;53.546;10.104;2023-02-28T06:34:29;2.50;99.90
11221;DHT22;8517;53.546;10.104;2023-02-28T06:36:58;2.50;99.90
11221;DHT22;8517;53.546;10.104;2023-02-28T06:39:27;2.50;99.90
11221;DHT22;8517;53.546;10.104;2023-02-28T06:41:54;2.50;99.90
11221;DHT22;8517;53.546;10.104;2023-02-28T06:44:30;2.50;99.90
11221;DHT22;8517;53.546;10.104;2023-02-28T06:47:00;2.50;99.90
11221;DHT22;8517;53.546;10.104;2023-02-28T06:49:28;2.50;99.90
11221;DHT22;8517;53.546;10.104;2023-02-28T06:52:17;2.50;99.90
11221;DHT22;8517;53.546;10.104;2023-02-28T06:54:43;2.60;99.90
11221;DHT22;8517;53.546;10.104;2023-02-28T06:57:31;2.60;99.90
11221;DHT22;8517;53.546;10.104;2023-02-28T07:00:17;2.70;99.90
11221;DHT22;8517;53.546;10.104;2023-02-28T07:03:26;2.90;99.90
11221;DHT22;8517;53.546;10.104;2023-02-28T07:05:57;3.10;99.90
11221;DHT22;8517;53.546;10.104;2023-02-28T07:08:26;3.30;99.90
11221;DHT22;8517;53.546;10.104;2023-02-28T07:11:24;3.50;99.90
11221;DHT22;8517;53.546;10.104;2023-02-28T07:17:31;4.00;99.90
11221;DHT22;8517;53.546;10.104;2023-02-28T07:20:01;4.10;99.90
11221;DHT22;8517;53.546;10.104;2023-02-28T07:22:35;4.10;99.90
11221;DHT22;8517;53.546;10.104;2023-02-28T07:25:04;4.20;99.90
11221;DHT22;8517;53.546;10.104;2023-02-28T07:27:38;4.20;99.90
11221;DHT22;8517;53.546;10.104;2023-02-28T07:30:08;4.30;99.90
11221;DHT22;8517;53.546;10.104;2023-02-28T07:32:37;4.30;99.90
11221;DHT22;8517;53.546;10.104;2023-02-28T07:35:05;4.30;99.90
11221;DHT22;8517;53.546;10.104;2023-02-28T07:37:36;4.30;99.90
11221;DHT22;8517;53.546;10.104;2023-02-28T07:40:13;4.30;99.90
11221;DHT22;8517;53.546;10.104;2023-02-28T07:42:44;4.30;99.90
11221;DHT22;8517;53.546;10.104;2023-02-28T07:45:11;4.40;99.90
11221;DHT22;8517;53.546;10.104;2023-02-28T07:47:38;4.50;99.90
11221;DHT22;8517;53.546;10.104;2023-02-28T07:50:06;4.50;99.90
11221;DHT22;8517;53.546;10.104;2023-02-28T07:52:33;4.50;99.90
11221;DHT22;8517;53.546;10.104;2023-02-28T07:55:03;4.60;99.90
11221;DHT22;8517;53.546;10.104;2023-02-28T07:57:32;4.60;99.90
11221;DHT22;8517;53.546;10.104;2023-02-28T07:59:59;4.70;99.90
11221;DHT22;8517;53.546;10.104;2023-02-28T08:02:26;4.80;99.90
11221;DHT22;8517;53.546;10.104;2023-02-28T08:04:53;5.00;99.90
11221;DHT22;8517;53.546;10.104;2023-02-28T08:07:20;5.00;99.90
11221;DHT22;8517;53.546;10.104;2023-02-28T08:09:47;5.20;99.90
11221;DHT22;8517;53.546;10.104;2023-02-28T08:12:14;5.30;99.90
11221;DHT22;8517;53.546;10.104;2023-02-28T08:14:42;5.30;99.90
11221;DHT22;8517;53.546;10.104;2023-02-28T08:17:09;5.40;99.90
11221;DHT22;8517;53.546;10.104;2023-02-28T08:19:36;5.50;99.90
11221;DHT22;8517;53.546;10.104;2023-02-28T08:22:03;5.60;99.90
11221;DHT22;8517;53.546;10.104;2023-02-28T08:24:30;5.60;99.90
11221;DHT22;8517;53.546;10.104;2023-02-28T08:26:58;5.80;99.90
11221;DHT22;8517;53.546;10.104;2023-02-28T08:29:25;6.00;99.90
11221;DHT22;8517;53.546;10.104;2023-02-28T08:31:54;6.20;99.90
11221;DHT22;8517;53.546;10.104;2023-02-28T08:34:20;6.50;99.90
11221;DHT22;8517;53.546;10.104;2023-02-28T08:36:48;6.70;99.90
11221;DHT22;8517;53.546;10.104;2023-02-28T08:39:15;6.90;99.90
11221;DHT22;8517;53.546;10.104;2023-02-28T08:41:43;7.00;99.90
11221;DHT22;8517;53.546;10.104;2023-02-28T08:44:10;7.10;99.90
11221;DHT22;8517;53.546;10.104;2023-02-28T08:46:38;7.20;99.90
11221;DHT22;8517;53.546;10.104;2023-02-28T08:49:06;7.20;99.90
11221;DHT22;8517;53.546;10.104;2023-02-28T08:51:33;7.30;99.90
11221;DHT22;8517;53.546;10.104;2023-02-28T08:54:00;7.40;99.90
11221;DHT22;8517;53.546;10.104;2023-02-28T08:56:28;7.50;99.90
11221;DHT22;8517;53.546;10.104;2023-02-28T08:58:56;7.80;99.90
11221;DHT22;8517;53.546;10.104;2023-02-28T09:01:39;8.00;99.90
11221;DHT22;8517;53.546;10.104;2023-02-28T09:04:10;8.30;99.90
11221;DHT22;8517;53.546;10.104;2023-02-28T09:06:37;8.60;99.90
11221;DHT22;8517;53.546;10.104;2023-02-28T09:09:05;8.90;99.90
11221;DHT22;8517;53.546;10.104;2023-02-28T09:11:33;9.10;99.90
11221;DHT22;8517;53.546;10.104;2023-02-28T09:14:00;9.30;99.90
11221;DHT22;8517;53.546;10.104;2023-02-28T09:16:29;9.40;99.90
11221;DHT22;8517;53.546;10.104;2023-02-28T09:18:56;9.40;99.90
11221;DHT22;8517;53.546;10.104;2023-02-28T09:21:25;9.40;99.90
11221;DHT22;8517;53.546;10.104;2023-02-28T09:23:52;9.30;99.90
11221;DHT22;8517;53.546;10.104;2023-02-28T09:26:20;9.30;99.90
11221;DHT22;8517;53.546;10.104;2023-02-28T09:28:48;9.30;99.90
11221;DHT22;8517;53.546;10.104;2023-02-28T09:31:17;9.40;99.90
11221;DHT22;8517;53.546;10.104;2023-02-28T09:33:47;9.60;99.90
11221;DHT22;8517;53.546;10.104;2023-02-28T09:36:14;9.70;99.90
11221;DHT22;8517;53.546;10.104;2023-02-28T09:38:42;9.80;99.90
11221;DHT22;8517;53.546;10.104;2023-02-28T09:41:13;9.90;99.90
11221;DHT22;8517;53.546;10.104;2023-02-28T09:43:43;10.10;99.90
11221;DHT22;8517;53.546;10.104;2023-02-28T09:46:18;10.20;99.90
11221;DHT22;8517;53.546;10.104;2023-02-28T09:48:48;10.40;99.90
11221;DHT22;8517;53.546;10.104;2023-02-28T09:51:28;10.70;99.90
11221;DHT22;8517;53.546;10.104;2023-02-28T09:53:58;10.90;99.90
11221;DHT22;8517;53.546;10.104;2023-02-28T09:56:27;11.10;99.90
11221;DHT22;8517;53.546;10.104;2023-02-28T09:58:58;11.30;99.90
11221;DHT22;8517;53.546;10.104;2023-02-28T10:01:31;11.30;99.90
11221;DHT22;8517;53.546;10.104;2023-02-28T10:04:05;11.30;99.90
11221;DHT22;8517;53.546;10.104;2023-02-28T10:06:41;11.40;99.90
11221;DHT22;8517;53.546;10.104;2023-02-28T10:09:17;11.50;99.90
11221;DHT22;8517;53.546;10.104;2023-02-28T10:11:46;11.50;99.90
11221;DHT22;8517;53.546;10.104;2023-02-28T10:14:16;11.60;99.90
11221;DHT22;8517;53.546;10.104;2023-02-28T10:16:46;11.60;99.90
11221;DHT22;8517;53.546;10.104;2023-02-28T10:19:21;11.70;99.90
11221;DHT22;8517;53.546;10.104;2023-02-28T10:21:55;11.60;99.90
11221;DHT22;8517;53.546;10.104;2023-02-28T10:24:28;11.50;99.90
11221;DHT22;8517;53.546;10.104;2023-02-28T10:27:00;11.50;99.90
11221;DHT22;8517;53.546;10.104;2023-02-28T10:29:31;11.60;99.90
11221;DHT22;8517;53.546;10.104;2023-02-28T10:32:04;11.70;99.90
11221;DHT22;8517;53.546;10.104;2023-02-28T10:34:30;11.90;99.90
11221;DHT22;8517;53.546;10.104;2023-02-28T10:37:13;12.10;99.90
11221;DHT22;8517;53.546;10.104;2023-02-28T10:39:44;12.40;99.90
11221;DHT22;8517;53.546;10.104;2023-02-28T10:42:23;12.60;99.90
11221;DHT22;8517;53.546;10.104;2023-02-28T10:45:05;12.70;99.90
11221;DHT22;8517;53.546;10.104;2023-02-28T10:47:34;12.90;99.90
11221;DHT22;8517;53.546;10.104;2023-02-28T10:50:02;12.90;99.90
11221;DHT22;8517;53.546;10.104;2023-02-28T10:52:38;13.00;99.90
11221;DHT22;8517;53.546;10.104;2023-02-28T10:55:23;13.10;99.90
11221;DHT22;8517;53.546;10.104;2023-02-28T10:57:51;13.30;99.90
11221;DHT22;8517;53.546;10.104;2023-02-28T11:00:19;13.40;99.90
11221;DHT22;8517;53.546;10.104;2023-02-28T11:02:47;13.50;99.90
11221;DHT22;8517;53.546;10.104;2023-02-28T11:05:25;13.80;99.90
11221;DHT22;8517;53.546;10.104;2023-02-28T11:07:53;14.10;99.90
11221;DHT22;8517;53.546;10.104;2023-02-28T11:10:25;14.30;99.90
11221;DHT22;8517;53.546;10.104;2023-02-28T11:12:55;14.40;99.90
11221;DHT22;8517;53.546;10.104;2023-02-28T11:15:24;14.50;99.90
11221;DHT22;8517;53.546;10.104;2023-02-28T11:17:57;14.30;99.90
11221;DHT22;8517;53.546;10.104;2023-02-28T11:20:30;14.10;99.90
11221;DHT22;8517;53.546;10.104;2023-02-28T11:22:58;13.80;99.90
11221;DHT22;8517;53.546;10.104;2023-02-28T11:25:30;13.50;99.90
11221;DHT22;8517;53.546;10.104;2023-02-28T11:27:59;13.40;99.90
11221;DHT22;8517;53.546;10.104;2023-02-28T11:30:34;13.30;99.90
11221;DHT22;8517;53.546;10.104;2023-02-28T11:33:14;13.10;99.90
11221;DHT22;8517;53.546;10.104;2023-02-28T11:35:45;12.90;99.90
11221;DHT22;8517;53.546;10.104;2023-02-28T11:38:14;12.80;99.90
11221;DHT22;8517;53.546;10.104;2023-02-28T11:40:48;12.70;99.90
11221;DHT22;8517;53.546;10.104;2023-02-28T11:43:25;12.50;99.90
11221;DHT22;8517;53.546;10.104;2023-02-28T11:46:02;12.40;99.90
11221;DHT22;8517;53.546;10.104;2023-02-28T11:48:41;12.40;99.90
11221;DHT22;8517;53.546;10.104;2023-02-28T11:51:15;12.50;99.90
11221;DHT22;8517;53.546;10.104;2023-02-28T11:53:57;12.50;99.90
11221;DHT22;8517;53.546;10.104;2023-02-28T11:56:33;12.60;99.90
11221;DHT22;8517;53.546;10.104;2023-02-28T11:59:22;12.70;99.90
11221;DHT22;8517;53.546;10.104;2023-02-28T12:02:06;12.80;99.90
11221;DHT22;8517;53.546;10.104;2023-02-28T12:04:51;13.00;99.90
11221;DHT22;8517;53.546;10.104;2023-02-28T12:07:26;13.20;99.90
11221;DHT22;8517;53.546;10.104;2023-02-28T12:10:04;13.30;99.90
11221;DHT22;8517;53.546;10.104;2023-02-28T12:12:42;13.30;99.90
11221;DHT22;8517;53.546;10.104;2023-02-28T12:15:25;13.40;99.90
11221;DHT22;8517;53.546;10.104;2023-02-28T12:18:12;13.40;99.90
11221;DHT22;8517;53.546;10.104;2023-02-28T12:20:46;13.40;99.90
11221;DHT22;8517;53.546;10.104;2023-02-28T12:23:30;13.40;99.90
11221;DHT22;8517;53.546;10.104;2023-02-28T12:26:12;13.40;99.90
11221;DHT22;8517;53.546;10.104;2023-02-28T12:28:53;13.20;99.90
11221;DHT22;8517;53.546;10.104;2023-02-28T12:31:24;13.00;99.90
11221;DHT22;8517;53.546;10.104;2023-02-28T12:33:56;12.80;99.90
11221;DHT22;8517;53.546;10.104;2023-02-28T12:36:35;12.60;99.90
11221;DHT22;8517;53.546;10.104;2023-02-28T12:39:07;12.40;99.90
11221;DHT22;8517;53.546;10.104;2023-02-28T12:41:40;12.20;99.90
11221;DHT22;8517;53.546;10.104;2023-02-28T12:44:16;12.00;99.90
11221;DHT22;8517;53.546;10.104;2023-02-28T12:46:47;11.80;99.90
11221;DHT22;8517;53.546;10.104;2023-02-28T12:49:22;11.70;99.90
11221;DHT22;8517;53.546;10.104;2023-02-28T12:51:52;11.60;99.90
11221;DHT22;8517;53.546;10.104;2023-02-28T12:54:22;11.50;99.90
11221;DHT22;8517;53.546;10.104;2023-02-28T12:56:57;11.40;99.90
11221;DHT22;8517;53.546;10.104;2023-02-28T12:59:32;11.40;99.90
11221;DHT22;8517;53.546;10.104;2023-02-28T13:02:33;11.40;99.90
11221;DHT22;8517;53.546;10.104;2023-02-28T13:05:26;11.30;99.90
11221;DHT22;8517;53.546;10.104;2023-02-28T13:08:13;11.40;99.90
11221;DHT22;8517;53.546;10.104;2023-02-28T13:10:44;11.70;99.90
11221;DHT22;8517;53.546;10.104;2023-02-28T13:13:16;12.10;99.90
11221;DHT22;8517;53.546;10.104;2023-02-28T13:16:06;12.30;99.90
11221;DHT22;8517;53.546;10.104;2023-02-28T13:18:35;12.40;99.90
11221;DHT22;8517;53.546;10.104;2023-02-28T13:21:06;12.40;99.90
11221;DHT22;8517;53.546;10.104;2023-02-28T13:23:59;12.40;99.90
11221;DHT22;8517;53.546;10.104;2023-02-28T13:29:31;12.50;99.90
11221;DHT22;8517;53.546;10.104;2023-02-28T13:32:30;12.60;99.90
11221;DHT22;8517;53.546;10.104;2023-02-28T13:38:31;12.40;99.90
11221;DHT22;8517;53.546;10.104;2023-02-28T13:44:02;12.40;99.90
11221;DHT22;8517;53.546;10.104;2023-02-28T13:46:30;12.50;99.90
11221;DHT22;8517;53.546;10.104;2023-02-28T13:49:18;12.80;99.90
11221;DHT22;8517;53.546;10.104;2023-02-28T13:51:47;12.90;99.90
11221;DHT22;8517;53.546;10.104;2023-02-28T13:54:23;12.80;99.90
11221;DHT22;8517;53.546;10.104;2023-02-28T13:56:57;12.70;99.90
11221;DHT22;8517;53.546;10.104;2023-02-28T13:59:32;12.50;99.90
11221;DHT22;8517;53.546;10.104;2023-02-28T14:02:20;12.20;99.90
11221;DHT22;8517;53.546;10.104;2023-02-28T14:05:05;12.00;99.90
11221;DHT22;8517;53.546;10.104;2023-02-28T14:07:37;11.70;99.90
11221;DHT22;8517;53.546;10.104;2023-02-28T14:10:07;11.50;99.90
11221;DHT22;8517;53.546;10.104;2023-02-28T14:12:59;11.40;99.90
11221;DHT22;8517;53.546;10.104;2023-02-28T14:15:43;11.30;99.90
11221;DHT22;8517;53.546;10.104;2023-02-28T14:18:25;11.30;99.90
11221;DHT22;8517;53.546;10.104;2023-02-28T14:21:01;11.30;99.90
11221;DHT22;8517;53.546;10.104;2023-02-28T14:23:59;11.20;99.90
11221;DHT22;8517;53.546;10.104;2023-02-28T14:26:55;11.10;99.90
11221;DHT22;8517;53.546;10.104;2023-02-28T14:29:38;11.00;99.90
11221;DHT22;8517;53.546;10.104;2023-02-28T14:32:15;11.00;99.90
11221;DHT22;8517;53.546;10.104;2023-02-28T14:34:52;11.00;99.90
11221;DHT22;8517;53.546;10.104;2023-02-28T14:37:26;10.90;99.90
11221;DHT22;8517;53.546;10.104;2023-02-28T14:39:54;10.80;99.90
11221;DHT22;8517;53.546;10.104;2023-02-28T14:42:31;10.80;99.90
11221;DHT22;8517;53.546;10.104;2023-02-28T14:44:58;10.60;99.90
11221;DHT22;8517;53.546;10.104;2023-02-28T14:47:28;10.60;99.90
11221;DHT22;8517;53.546;10.104;2023-02-28T14:49:57;10.60;99.90
11221;DHT22;8517;53.546;10.104;2023-02-28T14:52:27;10.60;99.90
11221;DHT22;8517;53.546;10.104;2023-02-28T14:54:57;10.60;99.90
11221;DHT22;8517;53.546;10.104;2023-02-28T14:57:26;10.50;99.90
11221;DHT22;8517;53.546;10.104;2023-02-28T15:00:02;10.50;99.90
11221;DHT22;8517;53.546;10.104;2023-02-28T15:02:36;10.50;99.90
11221;DHT22;8517;53.546;10.104;2023-02-28T15:05:19;10.50;99.90
11221;DHT22;8517;53.546;10.104;2023-02-28T15:08:01;10.50;99.90
11221;DHT22;8517;53.546;10.104;2023-02-28T15:10:28;10.50;99.90
11221;DHT22;8517;53.546;10.104;2023-02-28T15:12:57;10.50;99.90
11221;DHT22;8517;53.546;10.104;2023-02-28T15:15:27;10.50;99.90
11221;DHT22;8517;53.546;10.104;2023-02-28T15:17:57;10.50;99.90
11221;DHT22;8517;53.546;10.104;2023-02-28T15:20:26;10.40;99.90
11221;DHT22;8517;53.546;10.104;2023-02-28T15:22:56;10.40;99.90
11221;DHT22;8517;53.546;10.104;2023-02-28T15:25:23;10.40;99.90
11221;DHT22;8517;53.546;10.104;2023-02-28T15:27:53;10.30;99.90
11221;DHT22;8517;53.546;10.104;2023-02-28T15:30:24;10.30;99.90
11221;DHT22;8517;53.546;10.104;2023-02-28T15:33:06;10.20;99.90
11221;DHT22;8517;53.546;10.104;2023-02-28T15:35:37;10.20;99.90
11221;DHT22;8517;53.546;10.104;2023-02-28T15:38:15;10.20;99.90
11221;DHT22;8517;53.546;10.104;2023-02-28T15:40:43;10.10;99.90
11221;DHT22;8517;53.546;10.104;2023-02-28T15:43:16;10.10;99.90
11221;DHT22;8517;53.546;10.104;2023-02-28T15:45:55;10.10;99.90
11221;DHT22;8517;53.546;10.104;2023-02-28T15:48:26;10.00;99.90
11221;DHT22;8517;53.546;10.104;2023-02-28T15:50:58;9.90;99.90
11221;DHT22;8517;53.546;10.104;2023-02-28T15:53:32;9.90;99.90
11221;DHT22;8517;53.546;10.104;2023-02-28T15:56:02;9.80;99.90
11221;DHT22;8517;53.546;10.104;2023-02-28T15:58:30;9.80;99.90
11221;DHT22;8517;53.546;10.104;2023-02-28T16:01:17;9.70;99.90
11221;DHT22;8517;53.546;10.104;2023-02-28T16:03:46;9.70;99.90
11221;DHT22;8517;53.546;10.104;2023-02-28T16:06:33;9.60;99.90
11221;DHT22;8517;53.546;10.104;2023-02-28T16:09:08;9.60;99.90
11221;DHT22;8517;53.546;10.104;2023-02-28T16:11:45;9.60;99.90
11221;DHT22;8517;53.546;10.104;2023-02-28T16:14:25;9.50;99.90
11221;DHT22;8517;53.546;10.104;2023-02-28T16:24:11;9.40;99.90
11221;DHT22;8517;53.546;10.104;2023-02-28T16:30:40;9.20;99.90
11221;DHT22;8517;53.546;10.104;2023-02-28T16:33:12;9.10;99.90
11221;DHT22;8517;53.546;10.104;2023-02-28T16:35:39;9.10;99.90
11221;DHT22;8517;53.546;10.104;2023-02-28T16:38:06;9.00;99.90